Time;durP1;ratioP1;P1;durP2;ratioP2;P2;SDS_P1;SDS_P2;PMS_P1;PMS_P2;Temp;Humidity;BMP_temperature;BMP_pressure;BME280_temperature;BME280_humidity;BME280_pressure;Samples;Min_cycle;Max_cycle;Signal;HPM_P1;HPM_P2
2021/01/22 00:00:44;;;;;;;2.27;1.60;;;9.10;99.70;;;;;;5132074;27;20443;-67
2021/01/22 00:03:10;;;;;;;1.70;1.30;;;9.10;99.70;;;;;;5131314;27;20444;-67
2021/01/22 00:05:36;;;;;;;2.10;1.50;;;9.10;99.70;;;;;;5131839;27;20456;-67
2021/01/22 00:08:03;;;;;;;4.70;1.60;;;9.10;99.70;;;;;;5131472;27;20706;-69
2021/01/22 00:10:30;;;;;;;1.80;1.43;;;9.10;99.70;;;;;;5132658;27;20440;-68
2021/01/22 00:12:56;;;;;;;2.00;1.50;;;9.10;99.70;;;;;;5132101;27;20452;-67
2021/01/22 00:15:22;;;;;;;2.27;1.60;;;9.00;99.70;;;;;;5131647;27;20991;-67
2021/01/22 00:17:48;;;;;;;3.93;1.50;;;9.10;99.70;;;;;;5130938;27;20440;-67
2021/01/22 00:20:15;;;;;;;2.10;1.60;;;9.20;99.70;;;;;;5131568;27;20444;-67
2021/01/22 00:22:41;;;;;;;1.80;1.50;;;9.20;99.70;;;;;;5131836;27;20767;-67
2021/01/22 00:25:08;;;;;;;3.20;1.67;;;9.10;99.70;;;;;;5131525;27;20456;-66
2021/01/22 00:27:35;;;;;;;2.40;1.63;;;9.10;99.70;;;;;;5131168;27;20436;-67
2021/01/22 00:30:01;;;;;;;2.67;1.60;;;9.10;99.70;;;;;;5131557;27;20818;-69
2021/01/22 00:32:28;;;;;;;2.40;1.83;;;9.10;99.70;;;;;;5131485;27;20467;-69
2021/01/22 00:34:54;;;;;;;2.43;1.50;;;9.10;99.70;;;;;;5131228;27;20463;-68
2021/01/22 00:37:20;;;;;;;2.13;1.53;;;9.10;99.70;;;;;;5131095;27;20869;-67
2021/01/22 00:39:46;;;;;;;2.30;1.67;;;9.10;99.70;;;;;;5131373;27;20873;-68
2021/01/22 00:42:12;;;;;;;1.90;1.60;;;9.00;99.70;;;;;;5131449;27;20444;-67
2021/01/22 00:44:40;;;;;;;2.33;1.50;;;8.90;99.70;;;;;;5131238;27;20471;-67
2021/01/22 00:47:06;;;;;;;2.30;1.80;;;8.80;99.70;;;;;;5130887;27;20459;-68
2021/01/22 00:49:33;;;;;;;3.23;1.63;;;8.80;99.70;;;;;;5131345;28;20472;-67
2021/01/22 00:51:59;;;;;;;3.40;1.80;;;8.80;99.70;;;;;;5131281;28;20443;-67
2021/01/22 00:54:25;;;;;;;2.37;1.70;;;8.70;99.70;;;;;;5131068;28;20460;-67
2021/01/22 00:56:51;;;;;;;3.03;1.53;;;8.70;99.70;;;;;;5130860;28;20965;-67
2021/01/22 00:59:18;;;;;;;1.93;1.50;;;8.80;99.70;;;;;;5131235;28;20462;-69
2021/01/22 01:01:45;;;;;;;3.53;1.60;;;8.90;99.70;;;;;;5130458;28;20448;-68
2021/01/22 01:04:11;;;;;;;1.77;1.40;;;9.00;99.70;;;;;;5130987;28;21004;-68
2021/01/22 01:06:37;;;;;;;3.43;1.70;;;8.80;99.70;;;;;;5130983;28;20440;-67
2021/01/22 01:09:04;;;;;;;1.80;1.40;;;8.80;99.70;;;;;;5130688;28;20487;-67
2021/01/22 01:11:30;;;;;;;1.97;1.47;;;8.70;99.70;;;;;;5130936;28;20447;-67
2021/01/22 01:13:56;;;;;;;2.00;1.40;;;8.70;99.70;;;;;;5130880;28;20820;-69
2021/01/22 01:16:22;;;;;;;2.00;1.47;;;8.70;99.70;;;;;;5130888;28;20471;-69
2021/01/22 01:18:49;;;;;;;2.20;1.33;;;8.80;99.70;;;;;;5130510;28;20452;-68
2021/01/22 01:21:15;;;;;;;1.90;1.40;;;8.70;99.70;;;;;;5130760;28;20444;-68
2021/01/22 01:23:42;;;;;;;3.13;1.50;;;8.70;99.70;;;;;;5131068;28;20804;-68
2021/01/22 01:26:08;;;;;;;1.90;1.40;;;8.60;99.70;;;;;;5130719;28;20508;-68
2021/01/22 01:28:35;;;;;;;2.03;1.40;;;8.60;99.70;;;;;;5130568;27;20483;-67
2021/01/22 01:31:01;;;;;;;1.80;1.43;;;8.60;99.70;;;;;;5134808;27;20492;-67
2021/01/22 01:33:27;;;;;;;1.73;1.30;;;8.60;99.70;;;;;;5134827;27;20932;-69
2021/01/22 01:35:54;;;;;;;2.17;1.30;;;8.60;99.70;;;;;;5134771;27;20464;-68
2021/01/22 01:38:21;;;;;;;1.50;1.30;;;8.60;99.70;;;;;;5134423;27;20517;-69
2021/01/22 01:40:49;;;;;;;2.37;1.40;;;8.70;99.70;;;;;;5134709;27;20463;-67
2021/01/22 01:43:15;;;;;;;4.13;1.30;;;8.70;99.70;;;;;;5134691;27;20440;-68
2021/01/22 01:45:41;;;;;;;3.27;1.60;;;8.80;99.70;;;;;;5134748;27;20471;-68
2021/01/22 01:48:08;;;;;;;65.40;18.13;;;8.80;99.70;;;;;;5134111;27;20552;-67
2021/01/22 01:50:35;;;;;;;1.77;1.40;;;8.80;99.70;;;;;;5134338;27;20976;-69
2021/01/22 01:53:03;;;;;;;1.97;1.40;;;8.80;99.70;;;;;;5134638;27;20448;-67
2021/01/22 01:55:29;;;;;;;1.90;1.50;;;8.80;99.70;;;;;;5134271;27;21022;-68
2021/01/22 01:57:56;;;;;;;2.17;1.50;;;8.80;99.70;;;;;;5134024;27;20485;-66
2021/01/22 02:00:22;;;;;;;1.47;1.17;;;8.80;99.70;;;;;;5134404;27;20447;-66
2021/01/22 02:02:49;;;;;;;2.43;1.63;;;8.80;99.70;;;;;;5133527;27;20451;-67
2021/01/22 02:05:15;;;;;;;1.87;1.40;;;8.80;99.70;;;;;;5134312;27;20467;-68
2021/01/22 02:07:41;;;;;;;2.33;1.37;;;8.80;99.70;;;;;;5133638;27;20944;-66
2021/01/22 02:10:10;;;;;;;3.90;1.57;;;8.90;99.70;;;;;;5134197;27;20959;-68
2021/01/22 02:12:38;;;;;;;2.77;1.50;;;8.90;99.70;;;;;;5134048;27;20448;-68
2021/01/22 02:15:05;;;;;;;80.63;35.77;;;8.90;99.70;;;;;;5134030;27;20460;-66
2021/01/22 02:17:32;;;;;;;2.20;1.40;;;8.90;99.70;;;;;;5133582;27;20462;-68
2021/01/22 02:20:09;;;;;;;2.30;1.50;;;8.80;99.70;;;;;;5134014;27;20436;-68
2021/01/22 02:22:35;;;;;;;2.90;1.40;;;8.80;99.70;;;;;;5133784;27;20496;-68
2021/01/22 02:25:02;;;;;;;2.07;1.37;;;8.80;99.70;;;;;;5133748;27;20468;-69
2021/01/22 02:27:30;;;;;;;2.70;1.47;;;8.80;99.70;;;;;;5133312;27;20493;-68
2021/01/22 02:29:57;;;;;;;2.90;1.40;;;8.80;99.70;;;;;;5133776;27;20444;-68
2021/01/22 02:32:25;;;;;;;1.80;1.30;;;8.90;99.70;;;;;;5133692;27;20867;-67
2021/01/22 02:34:56;;;;;;;3.30;1.50;;;8.90;99.70;;;;;;5133500;27;20987;-67
2021/01/22 02:37:23;;;;;;;3.97;1.50;;;8.90;99.70;;;;;;5133351;27;20440;-68
2021/01/22 02:39:52;;;;;;;3.00;1.60;;;8.80;99.70;;;;;;5133329;27;20429;-67
2021/01/22 02:42:21;;;;;;;2.70;1.50;;;9.00;99.70;;;;;;5133567;27;20447;-68
2021/01/22 02:44:48;;;;;;;2.90;1.60;;;8.90;99.70;;;;;;5133496;27;20517;-67
2021/01/22 02:47:16;;;;;;;4.63;1.50;;;8.90;99.70;;;;;;5132933;27;20467;-67
2021/01/22 02:49:42;;;;;;;5.23;1.60;;;8.90;99.70;;;;;;5133324;27;20480;-69
2021/01/22 02:52:09;;;;;;;2.63;1.60;;;9.00;99.70;;;;;;5133320;27;20447;-70
2021/01/22 02:54:36;;;;;;;2.53;1.60;;;9.00;99.70;;;;;;5133334;27;20512;-67
2021/01/22 02:57:12;;;;;;;4.70;1.43;;;9.00;99.70;;;;;;5132875;27;21001;-67
2021/01/22 02:59:48;;;;;;;4.00;1.60;;;8.90;99.70;;;;;;5133371;27;20443;-68
2021/01/22 03:02:20;;;;;;;4.13;1.60;;;9.00;99.70;;;;;;5132488;27;20447;-68
2021/01/22 03:04:47;;;;;;;2.77;1.40;;;8.90;99.70;;;;;;5133062;27;20881;-67
2021/01/22 03:07:22;;;;;;;3.17;1.67;;;8.80;99.70;;;;;;5132615;27;20823;-67
2021/01/22 03:09:50;;;;;;;3.50;1.63;;;8.80;99.70;;;;;;5132960;27;20483;-68
2021/01/22 03:12:16;;;;;;;3.27;1.50;;;8.80;99.70;;;;;;5132899;27;20432;-67
2021/01/22 03:14:44;;;;;;;3.80;1.57;;;8.90;99.70;;;;;;5132905;27;20460;-67
2021/01/22 03:17:10;;;;;;;4.63;1.60;;;8.80;99.70;;;;;;5132652;27;20849;-67
2021/01/22 03:19:45;;;;;;;3.77;1.50;;;8.70;99.70;;;;;;5132983;27;20443;-67
2021/01/22 03:22:11;;;;;;;2.20;1.63;;;8.70;99.70;;;;;;5132936;27;20467;-66
2021/01/22 03:24:37;;;;;;;3.90;1.53;;;8.60;99.70;;;;;;5132817;27;20452;-67
2021/01/22 03:27:04;;;;;;;2.90;1.60;;;8.60;99.70;;;;;;5132314;27;20436;-67
2021/01/22 03:29:30;;;;;;;5.50;1.90;;;8.50;99.70;;;;;;5132519;27;20485;-67
2021/01/22 03:31:57;;;;;;;4.30;1.80;;;8.50;99.70;;;;;;5132434;27;20440;-68
2021/01/22 03:34:26;;;;;;;5.30;1.70;;;8.50;99.70;;;;;;5132465;27;20496;-67
2021/01/22 03:36:54;;;;;;;6.73;1.60;;;8.40;99.70;;;;;;5132163;27;20440;-68
2021/01/22 03:39:21;;;;;;;5.77;2.30;;;8.40;99.70;;;;;;5132329;27;20933;-67
2021/01/22 03:41:47;;;;;;;5.13;1.60;;;8.40;99.70;;;;;;5132345;27;20449;-68
2021/01/22 03:44:14;;;;;;;129.07;100.50;;;8.40;99.70;;;;;;5132071;27;20464;-67
2021/01/22 03:46:40;;;;;;;4.97;1.70;;;8.40;99.70;;;;;;5132283;27;20463;-67
2021/01/22 03:49:06;;;;;;;7.50;1.80;;;8.40;99.70;;;;;;5131919;27;20882;-68
2021/01/22 03:51:32;;;;;;;2.57;1.60;;;8.50;99.70;;;;;;5131876;27;20440;-68
2021/01/22 03:53:59;;;;;;;8.33;2.83;;;8.40;99.70;;;;;;5131938;27;20448;-67
2021/01/22 03:56:25;;;;;;;3.10;1.40;;;8.40;99.70;;;;;;5132094;27;20824;-67
2021/01/22 03:58:51;;;;;;;3.03;1.57;;;8.40;99.70;;;;;;5131612;27;20432;-67
2021/01/22 04:01:19;;;;;;;3.67;1.53;;;8.40;99.70;;;;;;5132110;27;20455;-68
2021/01/22 04:03:45;;;;;;;3.27;1.87;;;8.40;99.70;;;;;;5131223;27;20442;-69
2021/01/22 04:06:11;;;;;;;2.87;1.50;;;8.50;99.70;;;;;;5131917;27;20642;-68
2021/01/22 04:08:37;;;;;;;461.93;23.30;;;8.50;99.70;;;;;;5131432;27;20533;-68
2021/01/22 04:11:04;;;;;;;83.53;79.13;;;8.40;99.70;;;;;;5131896;27;20436;-69
2021/01/22 04:13:30;;;;;;;5.17;1.70;;;8.40;99.70;;;;;;5131759;27;20440;-67
2021/01/22 04:15:57;;;;;;;9.53;1.93;;;8.40;99.70;;;;;;5131826;27;20456;-67
2021/01/22 04:18:23;;;;;;;5.80;1.80;;;8.30;99.70;;;;;;5131495;27;20533;-66
2021/01/22 04:20:49;;;;;;;182.50;30.50;;;8.40;99.70;;;;;;5131657;27;20455;-67
2021/01/22 04:23:15;;;;;;;6.30;2.10;;;8.40;99.70;;;;;;5131631;27;20443;-67
2021/01/22 04:25:41;;;;;;;5.97;1.87;;;8.40;99.70;;;;;;5131695;27;20459;-66
2021/01/22 04:28:08;;;;;;;4.03;2.00;;;8.40;99.70;;;;;;5131361;27;20694;-67
2021/01/22 04:30:34;;;;;;;321.97;39.00;;;8.50;99.70;;;;;;5131728;27;20440;-67
2021/01/22 04:33:01;;;;;;;43.50;3.83;;;8.40;99.70;;;;;;5131552;27;20958;-67
2021/01/22 04:35:27;;;;;;;4.10;1.90;;;8.30;99.70;;;;;;5131674;27;20456;-67
2021/01/22 04:37:53;;;;;;;4.70;2.20;;;8.30;99.70;;;;;;5131007;27;20436;-67
2021/01/22 04:40:21;;;;;;;3.30;2.00;;;8.30;99.70;;;;;;5131575;27;20440;-66
2021/01/22 04:42:47;;;;;;;7.90;2.00;;;8.30;99.70;;;;;;5131541;27;20436;-67
2021/01/22 04:45:15;;;;;;;3.33;1.83;;;8.40;99.70;;;;;;5131304;27;20455;-67
2021/01/22 04:47:42;;;;;;;5.47;1.80;;;8.40;99.70;;;;;;5130884;27;20452;-68
2021/01/22 04:50:09;;;;;;;11.77;3.23;;;8.40;99.70;;;;;;5131350;27;20508;-67
2021/01/22 04:52:36;;;;;;;2.47;1.60;;;8.40;99.70;;;;;;5131411;28;20494;-67
2021/01/22 04:55:05;;;;;;;2.83;1.60;;;8.50;99.70;;;;;;5131289;28;20749;-68
2021/01/22 04:57:34;;;;;;;4.53;1.60;;;8.40;99.70;;;;;;5130882;28;20444;-66
2021/01/22 05:00:03;;;;;;;7.53;1.90;;;8.40;99.70;;;;;;5131324;28;20447;-67
2021/01/22 05:02:30;;;;;;;4.20;1.60;;;8.50;99.70;;;;;;5130434;28;20814;-67
2021/01/22 05:04:57;;;;;;;2.37;1.80;;;8.50;99.70;;;;;;5135040;27;20799;-66
2021/01/22 05:07:24;;;;;;;3.10;1.67;;;8.40;99.70;;;;;;5135066;27;20489;-67
2021/01/22 05:12:21;;;;;;;5.70;2.07;;;8.40;99.70;;;;;;5034517;22;21075;-70
2021/01/22 05:14:47;;;;;;;2.80;1.50;;;8.40;99.70;;;;;;5013491;28;20441;-70
2021/01/22 05:17:14;;;;;;;3.03;1.67;;;8.50;99.70;;;;;;5012579;28;20441;-69
2021/01/22 05:19:43;;;;;;;2.47;1.57;;;8.60;99.70;;;;;;5013487;28;20434;-70
2021/01/22 05:22:13;;;;;;;2.80;1.40;;;8.50;99.70;;;;;;5031386;28;20464;-71
2021/01/22 05:24:39;;;;;;;2.67;1.50;;;8.50;99.70;;;;;;5033217;28;20734;-69
2021/01/22 05:27:07;;;;;;;2.20;1.43;;;8.50;99.70;;;;;;5032015;28;20451;-70
2021/01/22 05:29:36;;;;;;;1.80;1.30;;;8.50;99.70;;;;;;5032737;28;20884;-71
2021/01/22 05:32:22;;;;;;;4.00;1.50;;;8.60;99.70;;;;;;5032749;28;20472;-69
2021/01/22 05:34:49;;;;;;;2.27;1.37;;;8.60;99.70;;;;;;5032776;28;20452;-70
2021/01/22 05:37:16;;;;;;;2.37;1.50;;;8.60;99.70;;;;;;5031832;28;20819;-71
2021/01/22 05:39:42;;;;;;;2.80;1.50;;;8.50;99.70;;;;;;5032733;28;20441;-70
2021/01/22 05:42:10;;;;;;;1.83;1.30;;;8.50;99.70;;;;;;5032706;28;20473;-71
2021/01/22 05:44:36;;;;;;;1.83;1.50;;;8.50;99.70;;;;;;5033059;28;20444;-70
2021/01/22 05:47:05;;;;;;;4.13;1.40;;;8.50;99.70;;;;;;5031770;28;20506;-68
2021/01/22 05:49:31;;;;;;;2.63;1.40;;;8.50;99.70;;;;;;5032415;28;20542;-69
2021/01/22 05:51:59;;;;;;;2.17;1.40;;;8.50;99.70;;;;;;5032527;28;20538;-70
2021/01/22 05:54:37;;;;;;;2.40;1.50;;;8.50;99.70;;;;;;5032421;28;20451;-70
2021/01/22 05:57:04;;;;;;;3.93;1.40;;;8.50;99.70;;;;;;5031504;28;20941;-68
2021/01/22 05:59:31;;;;;;;2.90;1.50;;;8.60;99.70;;;;;;5032247;28;20953;-69
2021/01/22 06:01:57;;;;;;;3.20;1.43;;;8.50;99.70;;;;;;5030175;28;20472;-69
2021/01/22 06:04:23;;;;;;;2.60;1.40;;;8.50;99.70;;;;;;5032362;28;20444;-67
2021/01/22 06:06:50;;;;;;;1.93;1.33;;;8.50;99.70;;;;;;5031441;28;20444;-71
2021/01/22 06:09:33;;;;;;;1.80;1.40;;;8.50;99.70;;;;;;5032102;28;20515;-70
2021/01/22 06:12:02;;;;;;;3.30;1.30;;;8.60;99.70;;;;;;5032051;28;20565;-70
2021/01/22 06:14:34;;;;;;;1.50;1.30;;;8.50;99.70;;;;;;5031703;28;20893;-70
2021/01/22 06:17:04;;;;;;;2.17;1.33;;;8.60;99.70;;;;;;5031437;28;20950;-70
2021/01/22 06:19:36;;;;;;;2.20;1.40;;;8.50;99.70;;;;;;5032121;28;20641;-69
2021/01/22 06:22:08;;;;;;;2.57;1.50;;;8.50;99.70;;;;;;5032001;28;20472;-68
2021/01/22 06:24:36;;;;;;;3.33;1.37;;;8.50;99.70;;;;;;5031807;28;20452;-70
2021/01/22 06:27:03;;;;;;;1.70;1.30;;;8.50;99.70;;;;;;5031032;28;20452;-70
2021/01/22 06:29:31;;;;;;;2.07;1.20;;;8.40;99.70;;;;;;5031781;28;20866;-70
2021/01/22 06:31:58;;;;;;;2.33;1.43;;;8.40;99.70;;;;;;5031798;28;20469;-70
2021/01/22 06:34:25;;;;;;;3.10;1.70;;;8.40;99.70;;;;;;5031792;28;20452;-70
2021/01/22 06:36:52;;;;;;;5.67;1.80;;;8.40;99.70;;;;;;5030755;28;20498;-70
2021/01/22 06:39:19;;;;;;;2.23;1.40;;;8.40;99.70;;;;;;5031692;28;20445;-70
2021/01/22 06:41:47;;;;;;;3.60;1.50;;;8.40;99.70;;;;;;5031445;28;20464;-70
2021/01/22 06:44:14;;;;;;;2.40;1.33;;;8.40;99.70;;;;;;5029412;28;20445;-68
2021/01/22 06:46:40;;;;;;;4.47;1.40;;;8.40;99.70;;;;;;5030733;28;20480;-71
2021/01/22 06:49:06;;;;;;;2.57;1.47;;;8.40;99.70;;;;;;5029669;28;20488;-69
2021/01/22 06:51:34;;;;;;;2.43;1.37;;;8.50;99.70;;;;;;5030401;28;20472;-70
2021/01/22 06:54:11;;;;;;;4.53;1.60;;;8.40;99.70;;;;;;5030818;28;21040;-70
2021/01/22 06:56:51;;;;;;;2.37;1.40;;;8.40;99.70;;;;;;5030101;28;20505;-70
2021/01/22 06:59:35;;;;;;;3.40;1.53;;;8.50;99.70;;;;;;5030713;28;20448;-70
2021/01/22 07:02:01;;;;;;;2.13;1.30;;;8.50;99.70;;;;;;5028019;28;20479;-70
2021/01/22 07:04:38;;;;;;;3.40;1.30;;;8.50;99.70;;;;;;5020661;28;20460;-68
2021/01/22 07:07:04;;;;;;;3.10;1.40;;;8.40;99.70;;;;;;5019795;28;20756;-70
2021/01/22 07:09:50;;;;;;;3.97;1.40;;;8.40;99.70;;;;;;5010760;28;20496;-71
2021/01/22 07:12:18;;;;;;;2.67;1.50;;;8.50;99.70;;;;;;5016339;28;20574;-71
2021/01/22 07:14:46;;;;;;;1.87;1.40;;;8.50;99.70;;;;;;5020637;28;20731;-70
2021/01/22 07:17:17;;;;;;;2.23;1.33;;;8.40;99.70;;;;;;5020090;28;20441;-70
2021/01/22 07:19:53;;;;;;;5.00;1.50;;;8.50;99.70;;;;;;5020820;28;20507;-70
2021/01/22 07:22:20;;;;;;;4.57;1.53;;;8.40;99.70;;;;;;5019214;28;20461;-70
2021/01/22 07:24:50;;;;;;;2.30;1.33;;;8.40;99.70;;;;;;5010486;28;20441;-70
2021/01/22 07:27:16;;;;;;;3.30;1.50;;;8.40;99.70;;;;;;5009368;28;20460;-70
2021/01/22 07:29:58;;;;;;;3.53;1.30;;;8.40;99.70;;;;;;5028548;28;20900;-70
2021/01/22 07:32:29;;;;;;;3.03;1.50;;;8.40;99.70;;;;;;5030654;28;20502;-68
2021/01/22 07:34:56;;;;;;;3.60;1.40;;;8.40;99.70;;;;;;5030513;28;20943;-70
2021/01/22 07:37:24;;;;;;;1.87;1.33;;;8.50;99.70;;;;;;5029682;28;20452;-71
2021/01/22 07:39:53;;;;;;;3.87;1.50;;;8.40;99.70;;;;;;5030490;28;20464;-69
2021/01/22 07:42:20;;;;;;;2.87;1.40;;;8.40;99.70;;;;;;5029806;28;20505;-69
2021/01/22 07:44:48;;;;;;;2.93;1.40;;;8.40;99.70;;;;;;5026987;28;20437;-68
2021/01/22 07:47:25;;;;;;;2.47;1.30;;;8.50;99.70;;;;;;5010046;28;20519;-69
2021/01/22 07:49:54;;;;;;;2.90;1.50;;;8.30;99.70;;;;;;5010687;28;20485;-66
2021/01/22 07:52:20;;;;;;;5.40;1.50;;;8.40;99.70;;;;;;5010366;28;21143;-64
2021/01/22 07:54:47;;;;;;;4.50;1.53;;;8.40;99.70;;;;;;5011244;28;20874;-69
2021/01/22 07:57:18;;;;;;;2.00;1.40;;;8.50;99.70;;;;;;5010576;28;20442;-68
2021/01/22 07:59:44;;;;;;;3.07;1.60;;;8.50;99.70;;;;;;5010077;28;20445;-68
2021/01/22 08:02:12;;;;;;;5.20;1.50;;;8.50;99.70;;;;;;5009247;28;20477;-69
2021/01/22 08:04:38;;;;;;;2.57;1.60;;;8.60;99.70;;;;;;5010416;28;20830;-70
2021/01/22 08:07:05;;;;;;;2.73;1.40;;;8.60;99.70;;;;;;5009489;28;20528;-70
2021/01/22 08:09:31;;;;;;;4.60;1.70;;;8.70;99.70;;;;;;5019760;28;20480;-69
2021/01/22 08:12:07;;;;;;;2.40;1.60;;;8.70;99.70;;;;;;5021030;28;20560;-68
2021/01/22 08:14:34;;;;;;;4.80;2.07;;;8.70;99.70;;;;;;5029637;28;20449;-66
2021/01/22 08:17:02;;;;;;;2.53;1.37;;;8.60;99.70;;;;;;5028773;28;20448;-70
2021/01/22 08:19:29;;;;;;;1.70;1.43;;;8.70;99.70;;;;;;5022915;28;20474;-69
2021/01/22 08:21:56;;;;;;;2.33;1.33;;;8.90;99.70;;;;;;5009524;28;20465;-68
2021/01/22 08:24:24;;;;;;;5.77;1.60;;;9.00;99.70;;;;;;5009188;28;20456;-69
2021/01/22 08:26:59;;;;;;;3.77;1.50;;;9.00;99.70;;;;;;5011695;28;20450;-70
2021/01/22 08:29:27;;;;;;;2.80;1.53;;;9.10;99.70;;;;;;5028817;28;20755;-70
2021/01/22 08:31:54;;;;;;;3.50;1.50;;;9.20;99.70;;;;;;5029065;28;20464;-69
2021/01/22 08:34:23;;;;;;;1.60;1.30;;;9.30;99.70;;;;;;5029036;28;20441;-69
2021/01/22 08:36:50;;;;;;;2.77;1.40;;;9.40;99.70;;;;;;5029116;28;21005;-70
2021/01/22 08:39:16;;;;;;;3.27;1.90;;;9.40;99.70;;;;;;5028915;28;20850;-70
2021/01/22 08:41:43;;;;;;;3.77;1.50;;;9.50;99.70;;;;;;5027971;28;20460;-69
2021/01/22 08:44:10;;;;;;;2.40;1.47;;;9.50;99.70;;;;;;5028673;28;20452;-68
2021/01/22 08:46:45;;;;;;;2.80;1.47;;;9.50;99.70;;;;;;5024869;28;20994;-69
2021/01/22 08:49:13;;;;;;;2.23;1.63;;;9.60;99.70;;;;;;5016930;28;21073;-70
2021/01/22 08:51:39;;;;;;;3.00;1.60;;;9.70;99.70;;;;;;5008615;28;20493;-69
2021/01/22 08:54:06;;;;;;;4.00;1.50;;;9.70;99.70;;;;;;5028280;28;20444;-69
2021/01/22 08:56:33;;;;;;;3.33;1.47;;;9.80;99.70;;;;;;5028902;28;20445;-69
2021/01/22 08:59:07;;;;;;;3.30;1.70;;;9.80;99.70;;;;;;5027178;28;20480;-69
2021/01/22 09:01:47;;;;;;;3.97;1.60;;;9.80;99.70;;;;;;5024048;28;20468;-69
2021/01/22 09:04:18;;;;;;;3.20;1.37;;;9.80;99.70;;;;;;5018849;28;20449;-70
2021/01/22 09:06:48;;;;;;;2.47;1.70;;;9.80;99.70;;;;;;5008964;28;20801;-68
2021/01/22 09:09:14;;;;;;;1.73;1.37;;;9.80;99.70;;;;;;5025848;28;20486;-70
2021/01/22 09:11:41;;;;;;;4.13;1.40;;;9.80;99.70;;;;;;5028740;28;20476;-69
2021/01/22 09:14:10;;;;;;;2.30;1.50;;;9.80;99.70;;;;;;5028541;28;20448;-69
2021/01/22 09:16:46;;;;;;;3.47;1.40;;;9.80;99.70;;;;;;5028916;28;20476;-70
2021/01/22 09:19:12;;;;;;;3.87;1.50;;;9.90;99.70;;;;;;5024178;28;20446;-69
2021/01/22 09:21:52;;;;;;;2.60;1.50;;;9.90;99.70;;;;;;5028274;28;20460;-69
2021/01/22 09:24:19;;;;;;;5.70;1.67;;;10.00;99.70;;;;;;5029035;28;20539;-70
2021/01/22 09:26:45;;;;;;;1.97;1.60;;;10.00;99.70;;;;;;5028592;28;20792;-69
2021/01/22 09:29:12;;;;;;;3.00;1.57;;;10.00;99.70;;;;;;5028167;28;20481;-69
2021/01/22 09:31:38;;;;;;;3.97;1.70;;;10.00;99.70;;;;;;5028282;28;20472;-70
2021/01/22 09:34:04;;;;;;;5.67;1.60;;;10.10;99.70;;;;;;5029093;28;20440;-69
2021/01/22 09:36:30;;;;;;;2.83;1.50;;;10.10;99.70;;;;;;5028813;28;20829;-70
2021/01/22 09:38:56;;;;;;;4.80;1.70;;;10.20;99.70;;;;;;5028328;28;20452;-69
2021/01/22 09:41:23;;;;;;;4.30;1.80;;;10.20;99.70;;;;;;5028289;28;20471;-70
2021/01/22 09:43:49;;;;;;;3.60;1.70;;;10.30;99.70;;;;;;5026883;28;20468;-69
2021/01/22 09:46:18;;;;;;;3.20;1.53;;;10.40;99.70;;;;;;5028347;28;20451;-69
2021/01/22 09:48:45;;;;;;;4.13;1.80;;;10.40;99.70;;;;;;5026134;28;21069;-68
2021/01/22 09:51:11;;;;;;;2.43;1.40;;;10.50;99.70;;;;;;5030908;28;20492;-69
2021/01/22 09:53:38;;;;;;;4.00;1.60;;;10.70;99.70;;;;;;5031557;28;20444;-69
2021/01/22 09:56:04;;;;;;;4.90;1.77;;;10.70;99.70;;;;;;5031433;28;20444;-69
2021/01/22 09:58:31;;;;;;;3.80;2.10;;;10.90;99.70;;;;;;5031320;28;21214;-70
2021/01/22 10:00:57;;;;;;;2.83;1.80;;;11.00;99.70;;;;;;5016517;28;20469;-70
2021/01/22 10:03:24;;;;;;;4.00;1.87;;;11.30;99.70;;;;;;5012390;28;20450;-70
2021/01/22 10:05:50;;;;;;;3.90;1.80;;;11.40;99.70;;;;;;5031399;28;20448;-69
2021/01/22 10:08:20;;;;;;;2.57;1.60;;;11.50;99.70;;;;;;5031542;28;20456;-69
2021/01/22 10:10:46;;;;;;;4.03;1.67;;;11.40;99.70;;;;;;5021242;28;20465;-69
2021/01/22 10:13:12;;;;;;;3.60;1.60;;;11.50;99.70;;;;;;5019739;28;20942;-69
2021/01/22 10:15:38;;;;;;;3.97;2.00;;;11.60;99.70;;;;;;5032068;28;20957;-69
2021/01/22 10:18:04;;;;;;;6.83;1.70;;;11.70;99.70;;;;;;5030754;28;20874;-69
2021/01/22 10:20:32;;;;;;;4.70;1.60;;;11.80;99.70;;;;;;5031898;28;20464;-69
2021/01/22 10:22:58;;;;;;;2.80;1.50;;;11.70;99.70;;;;;;5031099;28;20445;-69
2021/01/22 10:25:24;;;;;;;2.70;1.67;;;11.60;99.70;;;;;;5031650;28;20452;-69
2021/01/22 10:27:50;;;;;;;2.40;1.83;;;11.60;99.70;;;;;;5030610;28;20448;-68
2021/01/22 10:30:17;;;;;;;8.73;1.80;;;11.60;99.70;;;;;;5031678;28;20515;-68
2021/01/22 10:32:43;;;;;;;2.30;1.63;;;11.50;99.70;;;;;;5031489;28;20457;-68
2021/01/22 10:35:11;;;;;;;3.90;1.80;;;11.40;99.70;;;;;;5031421;28;20441;-68
2021/01/22 10:37:38;;;;;;;2.07;1.60;;;11.30;99.70;;;;;;5031520;28;20445;-70
2021/01/22 10:40:05;;;;;;;3.87;1.70;;;11.30;99.70;;;;;;5019729;28;20460;-69
2021/01/22 10:42:31;;;;;;;3.50;1.63;;;11.20;99.70;;;;;;5031424;28;20491;-68
2021/01/22 10:44:57;;;;;;;3.87;1.47;;;11.30;99.70;;;;;;5029820;28;20453;-68
2021/01/22 10:47:24;;;;;;;2.70;1.60;;;11.40;99.70;;;;;;5030897;28;20440;-67
2021/01/22 10:49:50;;;;;;;2.73;1.70;;;11.50;99.70;;;;;;5031025;28;20762;-68
2021/01/22 10:52:16;;;;;;;2.00;1.50;;;11.60;99.70;;;;;;5030897;28;20464;-68
2021/01/22 10:54:43;;;;;;;2.60;1.50;;;11.60;99.70;;;;;;5030618;28;20448;-69
2021/01/22 10:57:09;;;;;;;2.57;1.40;;;11.70;99.70;;;;;;5030516;28;20878;-69
2021/01/22 10:59:35;;;;;;;2.27;1.60;;;11.80;99.70;;;;;;5030837;28;20499;-68
2021/01/22 11:02:07;;;;;;;2.23;1.50;;;11.80;99.70;;;;;;5030521;28;20998;-68
2021/01/22 11:04:33;;;;;;;2.10;1.53;;;11.80;99.70;;;;;;5030233;28;20453;-69
2021/01/22 11:06:59;;;;;;;3.30;1.50;;;11.80;99.70;;;;;;5030206;28;20949;-68
2021/01/22 11:09:25;;;;;;;6.13;1.80;;;12.00;99.70;;;;;;5029888;28;20891;-70
2021/01/22 11:11:52;;;;;;;3.10;1.60;;;12.10;99.70;;;;;;5029839;28;20492;-68
2021/01/22 11:14:18;;;;;;;2.30;1.53;;;11.90;99.70;;;;;;5030329;28;20552;-69
2021/01/22 11:16:45;;;;;;;1.60;1.40;;;12.00;99.70;;;;;;5029790;28;20865;-70
2021/01/22 11:19:11;;;;;;;3.07;1.50;;;12.10;99.30;;;;;;5029606;28;20440;-70
2021/01/22 11:21:37;;;;;;;2.30;1.60;;;12.30;99.00;;;;;;5029634;28;20467;-69
2021/01/22 11:24:03;;;;;;;2.57;1.53;;;12.30;99.70;;;;;;5029799;28;20475;-70
2021/01/22 11:26:30;;;;;;;2.97;1.60;;;12.50;99.30;;;;;;5029074;28;20965;-68
2021/01/22 11:28:57;;;;;;;2.23;1.53;;;12.40;99.30;;;;;;5028659;28;20477;-69
2021/01/22 11:31:23;;;;;;;2.37;1.70;;;12.30;99.00;;;;;;5030206;28;20840;-70
2021/01/22 11:33:49;;;;;;;4.20;1.80;;;12.20;99.70;;;;;;5030102;28;20451;-70
2021/01/22 11:36:15;;;;;;;2.83;1.50;;;12.20;99.60;;;;;;5027031;28;20444;-69
2021/01/22 11:38:42;;;;;;;2.00;1.40;;;12.20;99.20;;;;;;5032972;28;20499;-69
2021/01/22 11:41:08;;;;;;;7.30;1.60;;;12.10;99.70;;;;;;5030236;28;20526;-69
2021/01/22 11:43:34;;;;;;;2.03;1.40;;;12.30;98.10;;;;;;5030099;28;20463;-68
2021/01/22 11:46:01;;;;;;;3.87;1.50;;;12.40;98.00;;;;;;5027447;28;20514;-69
2021/01/22 11:48:27;;;;;;;2.00;1.40;;;12.50;97.40;;;;;;5029929;28;20830;-69
2021/01/22 11:50:53;;;;;;;3.83;1.40;;;12.60;97.20;;;;;;5029145;28;20475;-68
2021/01/22 11:53:19;;;;;;;2.90;1.60;;;12.60;97.40;;;;;;5030106;28;20452;-71
2021/01/22 11:55:46;;;;;;;2.13;1.50;;;12.40;97.90;;;;;;5030331;28;20445;-69
2021/01/22 11:58:12;;;;;;;2.20;1.40;;;12.70;97.30;;;;;;5028125;28;20858;-70
2021/01/22 12:00:38;;;;;;;3.60;1.40;;;12.70;95.90;;;;;;5018002;28;20469;-69
2021/01/22 12:03:06;;;;;;;4.10;1.40;;;12.60;97.00;;;;;;5016138;28;20496;-69
2021/01/22 12:05:32;;;;;;;2.80;1.40;;;12.60;98.50;;;;;;5023130;28;20450;-69
2021/01/22 12:07:58;;;;;;;2.30;1.47;;;12.50;98.80;;;;;;5017625;28;20453;-71
2021/01/22 12:10:24;;;;;;;3.40;1.50;;;12.50;97.40;;;;;;5021768;28;20480;-71
2021/01/22 12:12:50;;;;;;;28.50;2.97;;;12.40;97.50;;;;;;5019998;28;20889;-70
2021/01/22 12:15:17;;;;;;;11.90;2.20;;;12.40;98.40;;;;;;5019506;28;20433;-69
2021/01/22 12:17:44;;;;;;;4.27;1.70;;;12.40;97.90;;;;;;5019153;28;20538;-70
2021/01/22 12:20:11;;;;;;;7.00;1.70;;;12.40;99.00;;;;;;5018444;28;20606;-70
2021/01/22 12:22:37;;;;;;;5.07;1.97;;;12.30;98.30;;;;;;5018455;28;20433;-69
2021/01/22 12:25:04;;;;;;;4.20;1.53;;;12.30;99.00;;;;;;5018078;28;20456;-70
2021/01/22 12:27:30;;;;;;;2.00;1.50;;;12.10;99.70;;;;;;5020628;28;20671;-70
2021/01/22 12:29:56;;;;;;;2.40;1.47;;;12.10;99.70;;;;;;5017180;28;20474;-72
2021/01/22 12:32:23;;;;;;;12.33;1.97;;;12.10;98.80;;;;;;5020461;28;20514;-71
2021/01/22 12:34:49;;;;;;;2.63;1.40;;;12.10;99.70;;;;;;5018383;28;20442;-71
2021/01/22 12:37:16;;;;;;;4.70;1.70;;;12.10;97.90;;;;;;5018893;28;20976;-71
2021/01/22 12:39:42;;;;;;;1.93;1.30;;;12.10;97.50;;;;;;5020052;28;20480;-71
2021/01/22 12:42:09;;;;;;;3.30;1.40;;;12.10;98.40;;;;;;5018973;28;20461;-70
2021/01/22 12:44:35;;;;;;;2.33;1.40;;;12.10;98.00;;;;;;5021319;28;21020;-71
2021/01/22 12:47:01;;;;;;;1.83;1.60;;;12.00;99.30;;;;;;5019784;28;20542;-71
2021/01/22 12:49:28;;;;;;;2.27;1.23;;;12.10;97.90;;;;;;5018073;28;20490;-71
2021/01/22 12:51:54;;;;;;;3.97;1.50;;;12.20;97.50;;;;;;5018845;28;20723;-68
2021/01/22 12:54:21;;;;;;;1.77;1.27;;;12.10;99.50;;;;;;5017335;28;20448;-64
2021/01/22 12:56:48;;;;;;;2.37;1.37;;;12.10;97.80;;;;;;5023355;28;20937;-68